sensor_id;sensor_type;location;lat;lon;timestamp;pressure;altitude;pressure_sealevel;temperature;humidity
61357;BME280;47227;46.752;23.576;2023-05-19T00:18:48;96760.99;;;12.42;84.42
61357;BME280;47227;46.752;23.576;2023-05-19T00:21:17;96766.20;;;12.38;84.60
61357;BME280;47227;46.752;23.576;2023-05-19T00:23:47;96765.66;;;12.35;84.59
61357;BME280;47227;46.752;23.576;2023-05-19T00:26:15;96767.70;;;12.34;84.91
61357;BME280;47227;46.752;23.576;2023-05-19T04:46:16;96848.41;;;13.82;85.34
61357;BME280;47227;46.752;23.576;2023-05-19T04:53:19;96841.09;;;14.03;84.46
61357;BME280;47227;46.752;23.576;2023-05-19T05:13:45;96859.02;;;13.85;82.51
61357;BME280;47227;46.752;23.576;2023-05-19T05:31:55;96864.55;;;14.01;81.00
61357;BME280;47227;46.752;23.576;2023-05-19T05:35:09;96863.52;;;14.03;80.52
61357;BME280;47227;46.752;23.576;2023-05-19T05:41:01;96867.00;;;14.06;79.68
61357;BME280;47227;46.752;23.576;2023-05-19T05:43:52;96868.72;;;14.10;79.38
61357;BME280;47227;46.752;23.576;2023-05-19T05:46:20;96870.12;;;14.14;79.15
61357;BME280;47227;46.752;23.576;2023-05-19T05:48:50;96868.88;;;14.19;79.29
61357;BME280;47227;46.752;23.576;2023-05-19T05:51:20;96869.30;;;14.25;79.13
61357;BME280;47227;46.752;23.576;2023-05-19T05:53:52;96868.95;;;14.25;78.30
61357;BME280;47227;46.752;23.576;2023-05-19T05:56:30;96869.44;;;14.24;78.09
61357;BME280;47227;46.752;23.576;2023-05-19T05:59:00;96871.95;;;14.32;78.50
61357;BME280;47227;46.752;23.576;2023-05-19T06:01:30;96868.86;;;14.37;78.44
61357;BME280;47227;46.752;23.576;2023-05-19T06:04:02;96872.65;;;14.43;78.50
61357;BME280;47227;46.752;23.576;2023-05-19T06:10:05;96877.28;;;14.56;77.64
61357;BME280;47227;46.752;23.576;2023-05-19T06:12:34;96876.20;;;14.65;77.80
61357;BME280;47227;46.752;23.576;2023-05-19T06:15:07;96878.90;;;14.77;77.48
61357;BME280;47227;46.752;23.576;2023-05-19T06:17:53;96882.17;;;14.94;77.85
61357;BME280;47227;46.752;23.576;2023-05-19T06:20:21;96880.57;;;15.09;78.05
61357;BME280;47227;46.752;23.576;2023-05-19T06:22:50;96885.42;;;15.23;77.91
61357;BME280;47227;46.752;23.576;2023-05-19T06:25:21;96885.91;;;15.35;77.93
61357;BME280;47227;46.752;23.576;2023-05-19T06:28:13;96887.46;;;15.48;77.44
61357;BME280;47227;46.752;23.576;2023-05-19T06:31:03;96890.95;;;15.52;75.62
61357;BME280;47227;46.752;23.576;2023-05-19T06:33:49;96893.22;;;15.51;75.34
61357;BME280;47227;46.752;23.576;2023-05-19T06:36:30;96886.35;;;15.57;76.21
61357;BME280;47227;46.752;23.576;2023-05-19T06:39:00;96889.85;;;15.63;75.93
61357;BME280;47227;46.752;23.576;2023-05-19T06:41:33;96892.77;;;15.67;75.53
61357;BME280;47227;46.752;23.576;2023-05-19T06:44:05;96889.34;;;15.79;75.57
61357;BME280;47227;46.752;23.576;2023-05-19T06:46:55;96887.55;;;15.83;74.05
61357;BME280;47227;46.752;23.576;2023-05-19T06:49:49;96888.27;;;15.92;73.95
61357;BME280;47227;46.752;23.576;2023-05-19T06:52:28;96886.52;;;16.05;73.14
61357;BME280;47227;46.752;23.576;2023-05-19T06:55:08;96888.19;;;16.21;72.72
61357;BME280;47227;46.752;23.576;2023-05-19T06:57:51;96890.80;;;16.38;71.60
61357;BME280;47227;46.752;23.576;2023-05-19T07:00:29;96890.10;;;16.56;72.01
61357;BME280;47227;46.752;23.576;2023-05-19T07:03:08;96891.53;;;16.76;71.16
61357;BME280;47227;46.752;23.576;2023-05-19T07:05:45;96891.02;;;16.79;68.75
61357;BME280;47227;46.752;23.576;2023-05-19T07:08:22;96893.84;;;16.86;67.43
61357;BME280;47227;46.752;23.576;2023-05-19T07:10:53;96897.53;;;17.00;68.69
61357;BME280;47227;46.752;23.576;2023-05-19T07:13:26;96895.92;;;17.15;69.14
61357;BME280;47227;46.752;23.576;2023-05-19T07:16:06;96901.11;;;17.25;68.67
61357;BME280;47227;46.752;23.576;2023-05-19T07:18:42;96901.55;;;17.32;68.48
61357;BME280;47227;46.752;23.576;2023-05-19T07:21:16;96898.79;;;17.40;69.10
61357;BME280;47227;46.752;23.576;2023-05-19T07:24:02;96899.27;;;17.48;68.48
61357;BME280;47227;46.752;23.576;2023-05-19T07:26:35;96900.19;;;17.55;67.66
61357;BME280;47227;46.752;23.576;2023-05-19T07:29:12;96896.80;;;17.66;68.42
61357;BME280;47227;46.752;23.576;2023-05-19T07:31:48;96892.41;;;17.74;66.47
61357;BME280;47227;46.752;23.576;2023-05-19T07:34:24;96893.32;;;17.87;67.25
61357;BME280;47227;46.752;23.576;2023-05-19T07:36:52;96892.92;;;18.03;67.20
61357;BME280;47227;46.752;23.576;2023-05-19T07:39:34;96893.52;;;18.19;66.44
61357;BME280;47227;46.752;23.576;2023-05-19T07:42:04;96894.81;;;18.33;64.11
61357;BME280;47227;46.752;23.576;2023-05-19T07:44:33;96896.33;;;18.50;64.33
61357;BME280;47227;46.752;23.576;2023-05-19T07:47:02;96896.90;;;18.61;61.91
61357;BME280;47227;46.752;23.576;2023-05-19T07:49:39;96896.00;;;18.61;58.92
61357;BME280;47227;46.752;23.576;2023-05-19T07:52:19;96892.09;;;18.73;57.58
61357;BME280;47227;46.752;23.576;2023-05-19T07:54:49;96892.58;;;18.83;57.25
61357;BME280;47227;46.752;23.576;2023-05-19T07:57:27;96891.95;;;18.86;57.59
61357;BME280;47227;46.752;23.576;2023-05-19T08:00:00;96890.16;;;18.85;57.26
61357;BME280;47227;46.752;23.576;2023-05-19T08:02:38;96886.23;;;18.69;57.54
61357;BME280;47227;46.752;23.576;2023-05-19T08:05:08;96885.31;;;18.66;57.91
61357;BME280;47227;46.752;23.576;2023-05-19T08:07:56;96881.84;;;18.67;57.57
61357;BME280;47227;46.752;23.576;2023-05-19T08:11:05;96881.28;;;18.70;57.49
61357;BME280;47227;46.752;23.576;2023-05-19T08:13:40;96884.23;;;18.78;57.08
61357;BME280;47227;46.752;23.576;2023-05-19T08:16:10;96882.77;;;18.89;57.14
61357;BME280;47227;46.752;23.576;2023-05-19T08:18:40;96879.36;;;18.80;57.52
61357;BME280;47227;46.752;23.576;2023-05-19T08:21:18;96885.48;;;19.06;59.03
61357;BME280;47227;46.752;23.576;2023-05-19T08:23:54;96885.48;;;19.43;58.36
61357;BME280;47227;46.752;23.576;2023-05-19T08:26:24;96888.29;;;19.67;57.99
61357;BME280;47227;46.752;23.576;2023-05-19T08:28:55;96888.08;;;19.90;58.12
61357;BME280;47227;46.752;23.576;2023-05-19T08:31:29;96885.50;;;20.10;58.80
61357;BME280;47227;46.752;23.576;2023-05-19T08:34:21;96886.17;;;20.26;58.74
61357;BME280;47227;46.752;23.576;2023-05-19T08:36:53;96886.01;;;20.44;57.63
61357;BME280;47227;46.752;23.576;2023-05-19T08:39:25;96887.50;;;20.58;56.68
61357;BME280;47227;46.752;23.576;2023-05-19T08:41:55;96889.85;;;20.70;56.06
61357;BME280;47227;46.752;23.576;2023-05-19T08:44:26;96889.06;;;20.76;53.40
61357;BME280;47227;46.752;23.576;2023-05-19T08:47:02;96886.06;;;20.86;53.99
61357;BME280;47227;46.752;23.576;2023-05-19T08:49:41;96886.59;;;21.04;53.35
61357;BME280;47227;46.752;23.576;2023-05-19T08:52:23;96891.40;;;21.09;52.08
61357;BME280;47227;46.752;23.576;2023-05-19T08:55:04;96896.14;;;21.32;53.86
61357;BME280;47227;46.752;23.576;2023-05-19T08:57:37;96900.52;;;21.56;52.74
61357;BME280;47227;46.752;23.576;2023-05-19T09:00:08;96905.52;;;21.62;50.10
61357;BME280;47227;46.752;23.576;2023-05-19T09:02:51;96901.02;;;21.63;51.17
61357;BME280;47227;46.752;23.576;2023-05-19T09:05:42;96902.45;;;21.64;52.38
61357;BME280;47227;46.752;23.576;2023-05-19T09:08:21;96897.02;;;21.74;52.90
61357;BME280;47227;46.752;23.576;2023-05-19T09:11:33;96893.73;;;21.97;53.61
61357;BME280;47227;46.752;23.576;2023-05-19T09:14:18;96888.96;;;22.02;51.01
61357;BME280;47227;46.752;23.576;2023-05-19T09:17:29;96883.36;;;21.99;50.79
61357;BME280;47227;46.752;23.576;2023-05-19T09:20:05;96883.13;;;22.11;48.08
61357;BME280;47227;46.752;23.576;2023-05-19T09:22:48;96885.54;;;22.08;47.87
61357;BME280;47227;46.752;23.576;2023-05-19T09:25:31;96887.17;;;22.31;49.46
61357;BME280;47227;46.752;23.576;2023-05-19T09:28:02;96887.20;;;22.46;48.54
61357;BME280;47227;46.752;23.576;2023-05-19T09:30:36;96890.95;;;22.53;47.67
61357;BME280;47227;46.752;23.576;2023-05-19T09:33:16;96892.48;;;22.64;48.15
61357;BME280;47227;46.752;23.576;2023-05-19T09:35:48;96890.40;;;22.68;48.71
61357;BME280;47227;46.752;23.576;2023-05-19T09:38:26;96891.73;;;22.66;45.36
61357;BME280;47227;46.752;23.576;2023-05-19T09:41:00;96888.13;;;22.61;43.86
61357;BME280;47227;46.752;23.576;2023-05-19T09:43:32;96882.71;;;22.46;45.52
61357;BME280;47227;46.752;23.576;2023-05-19T09:46:05;96879.40;;;22.43;46.33
61357;BME280;47227;46.752;23.576;2023-05-19T09:48:35;96880.17;;;22.57;47.48
61357;BME280;47227;46.752;23.576;2023-05-19T09:51:07;96882.61;;;22.73;47.44
61357;BME280;47227;46.752;23.576;2023-05-19T09:53:45;96876.10;;;22.84;46.81
61357;BME280;47227;46.752;23.576;2023-05-19T09:56:16;96875.52;;;22.93;46.35
61357;BME280;47227;46.752;23.576;2023-05-19T09:58:53;96869.77;;;22.97;46.37
61357;BME280;47227;46.752;23.576;2023-05-19T10:01:25;96866.88;;;23.11;47.07
61357;BME280;47227;46.752;23.576;2023-05-19T10:03:59;96865.21;;;23.16;44.22
61357;BME280;47227;46.752;23.576;2023-05-19T10:06:30;96862.10;;;23.15;43.30
61357;BME280;47227;46.752;23.576;2023-05-19T10:09:05;96856.00;;;23.26;43.94
61357;BME280;47227;46.752;23.576;2023-05-19T10:11:37;96854.14;;;23.36;42.34
61357;BME280;47227;46.752;23.576;2023-05-19T10:14:06;96851.08;;;23.46;43.02
61357;BME280;47227;46.752;23.576;2023-05-19T10:16:35;96844.29;;;23.66;43.79
61357;BME280;47227;46.752;23.576;2023-05-19T10:19:07;96839.27;;;23.84;42.81
61357;BME280;47227;46.752;23.576;2023-05-19T10:21:38;96838.69;;;24.00;42.42
61357;BME280;47227;46.752;23.576;2023-05-19T10:24:10;96835.91;;;23.94;38.51
61357;BME280;47227;46.752;23.576;2023-05-19T10:26:45;96833.48;;;23.78;38.94
61357;BME280;47227;46.752;23.576;2023-05-19T10:29:19;96831.00;;;23.99;41.71
61357;BME280;47227;46.752;23.576;2023-05-19T10:31:51;96823.77;;;24.19;42.23
61357;BME280;47227;46.752;23.576;2023-05-19T10:34:35;96819.93;;;24.52;43.37
61357;BME280;47227;46.752;23.576;2023-05-19T10:40:20;96819.19;;;25.30;38.94
61357;BME280;47227;46.752;23.576;2023-05-19T10:45:58;96815.52;;;25.37;36.48
61357;BME280;47227;46.752;23.576;2023-05-19T10:49:28;96812.08;;;25.14;35.57
61357;BME280;47227;46.752;23.576;2023-05-19T10:53:13;96805.02;;;25.33;35.89
61357;BME280;47227;46.752;23.576;2023-05-19T10:56:53;96802.15;;;25.52;35.19
61357;BME280;47227;46.752;23.576;2023-05-19T11:03:24;96804.85;;;26.19;36.36
61357;BME280;47227;46.752;23.576;2023-05-19T11:07:02;96803.33;;;26.50;33.84
61357;BME280;47227;46.752;23.576;2023-05-19T11:11:12;96805.05;;;26.74;31.49
61357;BME280;47227;46.752;23.576;2023-05-19T11:14:54;96801.39;;;27.32;32.05
61357;BME280;47227;46.752;23.576;2023-05-19T11:17:56;96798.18;;;27.94;29.92
61357;BME280;47227;46.752;23.576;2023-05-19T11:21:18;96796.56;;;28.45;28.63
61357;BME280;47227;46.752;23.576;2023-05-19T11:24:00;96794.73;;;28.52;27.86
61357;BME280;47227;46.752;23.576;2023-05-19T11:26:42;96793.36;;;28.56;27.47
61357;BME280;47227;46.752;23.576;2023-05-19T11:30:53;96788.19;;;28.13;26.28
61357;BME280;47227;46.752;23.576;2023-05-19T11:34:23;96786.54;;;27.99;26.27
61357;BME280;47227;46.752;23.576;2023-05-19T11:37:54;96784.58;;;28.20;26.89
61357;BME280;47227;46.752;23.576;2023-05-19T11:41:21;96781.21;;;28.50;25.77
61357;BME280;47227;46.752;23.576;2023-05-19T11:47:51;96782.98;;;29.35;25.58
61357;BME280;47227;46.752;23.576;2023-05-19T11:51:16;96780.44;;;29.65;24.42
61357;BME280;47227;46.752;23.576;2023-05-19T11:53:55;96779.50;;;29.95;23.61
61357;BME280;47227;46.752;23.576;2023-05-19T11:56:42;96777.55;;;29.75;23.86
61357;BME280;47227;46.752;23.576;2023-05-19T12:04:32;96772.69;;;29.55;23.05
61357;BME280;47227;46.752;23.576;2023-05-19T12:12:55;96766.80;;;30.88;24.12
61357;BME280;47227;46.752;23.576;2023-05-19T12:17:19;96761.92;;;31.62;24.22
61357;BME280;47227;46.752;23.576;2023-05-19T12:20:50;96756.54;;;32.09;23.15
61357;BME280;47227;46.752;23.576;2023-05-19T12:25:32;96752.02;;;32.60;22.77
61357;BME280;47227;46.752;23.576;2023-05-19T12:29:27;96747.80;;;32.67;21.60
61357;BME280;47227;46.752;23.576;2023-05-19T12:32:38;96748.20;;;32.45;21.14
61357;BME280;47227;46.752;23.576;2023-05-19T13:13:06;96743.41;;;32.27;23.03
61357;BME280;47227;46.752;23.576;2023-05-19T13:19:57;96750.59;;;32.70;21.11
61357;BME280;47227;46.752;23.576;2023-05-19T13:26:58;96745.21;;;32.51;21.45
61357;BME280;47227;46.752;23.576;2023-05-19T13:44:18;96794.86;;;28.17;27.98
61357;BME280;47227;46.752;23.576;2023-05-19T13:47:29;96797.71;;;27.44;29.34
61357;BME280;47227;46.752;23.576;2023-05-19T13:50:42;96798.12;;;26.85;30.68
61357;BME280;47227;46.752;23.576;2023-05-19T13:58:31;96783.28;;;25.03;33.94
61357;BME280;47227;46.752;23.576;2023-05-19T14:01:40;96777.23;;;24.05;37.38
61357;BME280;47227;46.752;23.576;2023-05-19T14:07:43;96781.80;;;22.90;40.55
61357;BME280;47227;46.752;23.576;2023-05-19T14:10:15;96782.31;;;22.48;41.82
61357;BME280;47227;46.752;23.576;2023-05-19T14:13:44;96786.84;;;22.00;42.87
61357;BME280;47227;46.752;23.576;2023-05-19T14:17:22;96783.52;;;21.54;43.98
61357;BME280;47227;46.752;23.576;2023-05-19T14:20:52;96777.18;;;21.18;44.49
61357;BME280;47227;46.752;23.576;2023-05-19T14:27:22;96777.98;;;20.92;43.89
61357;BME280;47227;46.752;23.576;2023-05-19T14:29:50;96776.46;;;20.79;43.87
61357;BME280;47227;46.752;23.576;2023-05-19T14:32:18;96779.39;;;20.70;43.98
61357;BME280;47227;46.752;23.576;2023-05-19T14:34:47;96789.06;;;20.66;44.02
61357;BME280;47227;46.752;23.576;2023-05-19T14:37:15;96791.81;;;20.61;44.42
61357;BME280;47227;46.752;23.576;2023-05-19T14:39:42;96789.98;;;20.61;44.45
61357;BME280;47227;46.752;23.576;2023-05-19T14:42:11;96788.38;;;20.61;44.46
61357;BME280;47227;46.752;23.576;2023-05-19T14:44:39;96789.13;;;20.74;44.01
61357;BME280;47227;46.752;23.576;2023-05-19T14:47:07;96789.08;;;20.93;43.42
61357;BME280;47227;46.752;23.576;2023-05-19T14:49:38;96789.86;;;21.14;42.77
61357;BME280;47227;46.752;23.576;2023-05-19T14:52:07;96791.73;;;21.30;41.98
61357;BME280;47227;46.752;23.576;2023-05-19T14:54:35;96791.97;;;21.52;41.81
61357;BME280;47227;46.752;23.576;2023-05-19T14:57:03;96788.58;;;22.09;40.87
61357;BME280;47227;46.752;23.576;2023-05-19T14:59:37;96784.73;;;22.51;40.03
61357;BME280;47227;46.752;23.576;2023-05-19T15:02:06;96784.31;;;22.63;40.05
61357;BME280;47227;46.752;23.576;2023-05-19T15:04:34;96781.92;;;22.94;39.36
61357;BME280;47227;46.752;23.576;2023-05-19T15:07:02;96776.94;;;23.40;38.42
61357;BME280;47227;46.752;23.576;2023-05-19T15:09:33;96775.25;;;23.79;38.03
61357;BME280;47227;46.752;23.576;2023-05-19T15:12:02;96776.50;;;24.39;37.36
61357;BME280;47227;46.752;23.576;2023-05-19T15:14:31;96775.16;;;25.14;36.25
61357;BME280;47227;46.752;23.576;2023-05-19T15:16:59;96774.62;;;26.11;35.42
61357;BME280;47227;46.752;23.576;2023-05-19T15:19:27;96769.38;;;26.97;34.23
61357;BME280;47227;46.752;23.576;2023-05-19T15:21:55;96764.42;;;27.78;32.38
61357;BME280;47227;46.752;23.576;2023-05-19T15:24:23;96756.57;;;28.67;31.57
61357;BME280;47227;46.752;23.576;2023-05-19T15:26:51;96753.56;;;29.44;28.95
61357;BME280;47227;46.752;23.576;2023-05-19T15:29:19;96756.08;;;30.09;28.31
61357;BME280;47227;46.752;23.576;2023-05-19T15:31:50;96757.40;;;30.73;27.08
61357;BME280;47227;46.752;23.576;2023-05-19T15:34:19;96754.48;;;31.30;25.80
61357;BME280;47227;46.752;23.576;2023-05-19T15:36:48;96756.70;;;31.74;25.04
61357;BME280;47227;46.752;23.576;2023-05-19T15:39:16;96755.99;;;31.72;24.06
61357;BME280;47227;46.752;23.576;2023-05-19T15:41:44;96753.42;;;31.62;23.78
61357;BME280;47227;46.752;23.576;2023-05-19T15:44:12;96751.86;;;31.52;23.78
61357;BME280;47227;46.752;23.576;2023-05-19T15:46:41;96753.03;;;31.89;24.11
61357;BME280;47227;46.752;23.576;2023-05-19T15:49:10;96750.11;;;32.41;23.67
61357;BME280;47227;46.752;23.576;2023-05-19T15:51:40;96752.79;;;31.67;24.28
61357;BME280;47227;46.752;23.576;2023-05-19T15:54:09;96750.95;;;30.05;26.55
61357;BME280;47227;46.752;23.576;2023-05-19T15:56:37;96748.09;;;28.78;28.10
61357;BME280;47227;46.752;23.576;2023-05-19T15:59:06;96749.31;;;28.25;28.96
61357;BME280;47227;46.752;23.576;2023-05-19T16:01:34;96755.23;;;28.04;28.61
61357;BME280;47227;46.752;23.576;2023-05-19T16:04:03;96753.42;;;27.40;29.42
61357;BME280;47227;46.752;23.576;2023-05-19T16:06:31;96754.45;;;26.93;30.15
61357;BME280;47227;46.752;23.576;2023-05-19T16:08:59;96757.96;;;26.45;30.99
61357;BME280;47227;46.752;23.576;2023-05-19T16:11:27;96760.58;;;26.01;31.74
61357;BME280;47227;46.752;23.576;2023-05-19T16:13:55;96760.91;;;25.69;32.01
61357;BME280;47227;46.752;23.576;2023-05-19T16:16:23;96763.88;;;25.37;32.63
61357;BME280;47227;46.752;23.576;2023-05-19T16:18:51;96758.30;;;24.96;33.15
61357;BME280;47227;46.752;23.576;2023-05-19T16:21:19;96761.35;;;24.53;33.61
61357;BME280;47227;46.752;23.576;2023-05-19T16:23:49;96760.75;;;24.09;34.58
61357;BME280;47227;46.752;23.576;2023-05-19T16:26:17;96758.70;;;23.76;35.27
61357;BME280;47227;46.752;23.576;2023-05-19T16:28:45;96759.37;;;23.44;35.77
61357;BME280;47227;46.752;23.576;2023-05-19T16:31:13;96764.48;;;23.13;36.67
61357;BME280;47227;46.752;23.576;2023-05-19T16:33:43;96769.29;;;22.84;37.33
61357;BME280;47227;46.752;23.576;2023-05-19T16:36:12;96771.31;;;22.61;37.65
61357;BME280;47227;46.752;23.576;2023-05-19T16:38:40;96770.57;;;22.42;38.47
61357;BME280;47227;46.752;23.576;2023-05-19T16:41:10;96776.39;;;22.22;38.70
61357;BME280;47227;46.752;23.576;2023-05-19T16:43:38;96778.58;;;21.98;40.15
61357;BME280;47227;46.752;23.576;2023-05-19T16:46:06;96780.33;;;21.76;40.51
61357;BME280;47227;46.752;23.576;2023-05-19T16:48:36;96783.34;;;21.58;40.74
61357;BME280;47227;46.752;23.576;2023-05-19T16:51:04;96784.86;;;21.44;40.81
61357;BME280;47227;46.752;23.576;2023-05-19T16:53:32;96787.17;;;21.30;41.74
61357;BME280;47227;46.752;23.576;2023-05-19T16:56:00;96785.04;;;21.11;42.42
61357;BME280;47227;46.752;23.576;2023-05-19T16:58:28;96785.18;;;20.97;42.70
61357;BME280;47227;46.752;23.576;2023-05-19T17:00:57;96787.90;;;20.92;42.78
61357;BME280;47227;46.752;23.576;2023-05-19T17:03:26;96791.43;;;20.90;43.18
61357;BME280;47227;46.752;23.576;2023-05-19T17:05:56;96793.17;;;20.79;44.16
61357;BME280;47227;46.752;23.576;2023-05-19T17:08:24;96798.80;;;20.67;44.50
61357;BME280;47227;46.752;23.576;2023-05-19T17:10:52;96801.56;;;20.55;44.34
61357;BME280;47227;46.752;23.576;2023-05-19T17:13:21;96803.31;;;20.44;43.95
61357;BME280;47227;46.752;23.576;2023-05-19T17:15:50;96804.39;;;20.27;44.16
61357;BME280;47227;46.752;23.576;2023-05-19T17:18:19;96808.23;;;20.10;45.35
61357;BME280;47227;46.752;23.576;2023-05-19T17:20:47;96810.58;;;19.84;46.82
61357;BME280;47227;46.752;23.576;2023-05-19T17:23:15;96808.10;;;19.65;47.24
61357;BME280;47227;46.752;23.576;2023-05-19T17:25:44;96812.34;;;19.46;47.12
61357;BME280;47227;46.752;23.576;2023-05-19T17:28:11;96815.42;;;19.29;47.68
61357;BME280;47227;46.752;23.576;2023-05-19T17:30:39;96817.37;;;19.13;47.61
61357;BME280;47227;46.752;23.576;2023-05-19T17:33:07;96815.73;;;19.01;48.10
61357;BME280;47227;46.752;23.576;2023-05-19T17:35:36;96817.92;;;18.88;48.65
61357;BME280;47227;46.752;23.576;2023-05-19T17:38:04;96822.54;;;18.77;48.43
61357;BME280;47227;46.752;23.576;2023-05-19T17:40:32;96824.36;;;18.62;48.41
61357;BME280;47227;46.752;23.576;2023-05-19T17:43:01;96823.61;;;18.44;49.06
61357;BME280;47227;46.752;23.576;2023-05-19T17:45:30;96825.78;;;18.27;50.41
61357;BME280;47227;46.752;23.576;2023-05-19T17:47:58;96827.04;;;18.13;49.89
61357;BME280;47227;46.752;23.576;2023-05-19T17:50:26;96827.48;;;18.01;49.72
61357;BME280;47227;46.752;23.576;2023-05-19T17:52:54;96825.59;;;17.88;49.83
61357;BME280;47227;46.752;23.576;2023-05-19T17:55:25;96828.56;;;17.74;50.23
61357;BME280;47227;46.752;23.576;2023-05-19T17:57:57;96825.61;;;17.59;50.50
61357;BME280;47227;46.752;23.576;2023-05-19T18:00:25;96826.02;;;17.47;50.40
61357;BME280;47227;46.752;23.576;2023-05-19T18:02:53;96826.72;;;17.39;51.20
61357;BME280;47227;46.752;23.576;2023-05-19T18:05:24;96824.60;;;17.33;50.82
61357;BME280;47227;46.752;23.576;2023-05-19T18:07:55;96829.08;;;17.29;50.76
61357;BME280;47227;46.752;23.576;2023-05-19T18:10:24;96828.80;;;17.25;50.94
61357;BME280;47227;46.752;23.576;2023-05-19T18:12:54;96832.73;;;17.20;51.36
61357;BME280;47227;46.752;23.576;2023-05-19T18:15:22;96840.10;;;17.13;51.90
61357;BME280;47227;46.752;23.576;2023-05-19T18:17:50;96841.82;;;17.03;52.01
61357;BME280;47227;46.752;23.576;2023-05-19T18:20:18;96845.52;;;16.94;52.39
61357;BME280;47227;46.752;23.576;2023-05-19T18:22:46;96847.63;;;16.87;53.21
61357;BME280;47227;46.752;23.576;2023-05-19T18:25:15;96849.45;;;16.81;53.33
61357;BME280;47227;46.752;23.576;2023-05-19T18:27:48;96854.81;;;16.78;53.31
61357;BME280;47227;46.752;23.576;2023-05-19T18:30:16;96856.51;;;16.75;53.30
61357;BME280;47227;46.752;23.576;2023-05-19T18:32:44;96861.13;;;16.72;53.42
61357;BME280;47227;46.752;23.576;2023-05-19T18:35:12;96860.27;;;16.71;53.53
61357;BME280;47227;46.752;23.576;2023-05-19T18:37:40;96860.13;;;16.70;53.42
61357;BME280;47227;46.752;23.576;2023-05-19T18:40:08;96857.64;;;16.69;53.34
61357;BME280;47227;46.752;23.576;2023-05-19T18:42:36;96858.34;;;16.68;53.76
61357;BME280;47227;46.752;23.576;2023-05-19T18:45:05;96858.77;;;16.66;54.26
61357;BME280;47227;46.752;23.576;2023-05-19T18:47:33;96861.01;;;16.62;54.19
61357;BME280;47227;46.752;23.576;2023-05-19T18:50:01;96858.73;;;16.59;54.35
61357;BME280;47227;46.752;23.576;2023-05-19T18:52:29;96859.65;;;16.56;54.64
61357;BME280;47227;46.752;23.576;2023-05-19T18:54:58;96863.89;;;16.55;54.38
61357;BME280;47227;46.752;23.576;2023-05-19T18:57:27;96864.23;;;16.54;54.52
61357;BME280;47227;46.752;23.576;2023-05-19T18:59:55;96868.09;;;16.54;54.53
61357;BME280;47227;46.752;23.576;2023-05-19T19:02:23;96868.20;;;16.53;54.78
61357;BME280;47227;46.752;23.576;2023-05-19T19:04:54;96870.48;;;16.51;54.94
61357;BME280;47227;46.752;23.576;2023-05-19T19:07:23;96873.55;;;16.49;55.10
61357;BME280;47227;46.752;23.576;2023-05-19T19:09:51;96874.30;;;16.47;55.01
61357;BME280;47227;46.752;23.576;2023-05-19T19:12:19;96872.30;;;16.45;55.18
61357;BME280;47227;46.752;23.576;2023-05-19T19:14:48;96870.18;;;16.44;55.30
61357;BME280;47227;46.752;23.576;2023-05-19T19:17:16;96872.67;;;16.41;55.97
61357;BME280;47227;46.752;23.576;2023-05-19T19:19:45;96873.53;;;16.40;56.03
61357;BME280;47227;46.752;23.576;2023-05-19T19:22:15;96875.88;;;16.38;56.23
61357;BME280;47227;46.752;23.576;2023-05-19T19:24:43;96877.98;;;16.35;56.03
61357;BME280;47227;46.752;23.576;2023-05-19T19:27:11;96881.17;;;16.34;56.22
61357;BME280;47227;46.752;23.576;2023-05-19T19:29:40;96881.39;;;16.33;56.52
61357;BME280;47227;46.752;23.576;2023-05-19T19:32:09;96879.70;;;16.32;56.70
61357;BME280;47227;46.752;23.576;2023-05-19T19:34:39;96884.10;;;16.30;56.76
61357;BME280;47227;46.752;23.576;2023-05-19T19:37:09;96885.80;;;16.29;56.71
61357;BME280;47227;46.752;23.576;2023-05-19T19:39:38;96886.55;;;16.26;56.62
61357;BME280;47227;46.752;23.576;2023-05-19T19:42:06;96888.66;;;16.24;56.90
61357;BME280;47227;46.752;23.576;2023-05-19T19:44:54;96888.89;;;16.21;57.15
61357;BME280;47227;46.752;23.576;2023-05-19T19:47:22;96889.73;;;16.16;57.47
61357;BME280;47227;46.752;23.576;2023-05-19T19:49:53;96887.27;;;16.11;57.60
61357;BME280;47227;46.752;23.576;2023-05-19T19:52:21;96890.13;;;16.06;57.76
61357;BME280;47227;46.752;23.576;2023-05-19T19:54:49;96888.44;;;15.99;57.99
61357;BME280;47227;46.752;23.576;2023-05-19T19:57:17;96889.55;;;15.92;57.91
61357;BME280;47227;46.752;23.576;2023-05-19T19:59:45;96887.77;;;15.85;58.29
61357;BME280;47227;46.752;23.576;2023-05-19T20:02:14;96891.15;;;15.79;58.40
61357;BME280;47227;46.752;23.576;2023-05-19T20:04:42;96896.33;;;15.72;58.21
61357;BME280;47227;46.752;23.576;2023-05-19T20:07:10;96895.52;;;15.64;58.29
61357;BME280;47227;46.752;23.576;2023-05-19T20:09:40;96894.86;;;15.57;58.34
61357;BME280;47227;46.752;23.576;2023-05-19T20:12:08;96894.27;;;15.51;58.31
61357;BME280;47227;46.752;23.576;2023-05-19T20:14:36;96894.70;;;15.46;58.46
61357;BME280;47227;46.752;23.576;2023-05-19T20:17:04;96893.31;;;15.40;58.84
61357;BME280;47227;46.752;23.576;2023-05-19T20:19:32;96893.52;;;15.33;59.22
61357;BME280;47227;46.752;23.576;2023-05-19T20:22:01;96897.00;;;15.27;59.52
61357;BME280;47227;46.752;23.576;2023-05-19T20:24:29;96895.45;;;15.19;59.50
61357;BME280;47227;46.752;23.576;2023-05-19T20:26:57;96891.04;;;15.11;60.17
61357;BME280;47227;46.752;23.576;2023-05-19T20:29:25;96897.37;;;15.03;60.18
61357;BME280;47227;46.752;23.576;2023-05-19T20:31:53;96898.39;;;14.95;60.46
61357;BME280;47227;46.752;23.576;2023-05-19T20:34:24;96900.01;;;14.87;60.58
61357;BME280;47227;46.752;23.576;2023-05-19T20:36:52;96904.36;;;14.80;60.51
61357;BME280;47227;46.752;23.576;2023-05-19T20:39:23;96904.02;;;14.73;60.64
61357;BME280;47227;46.752;23.576;2023-05-19T20:41:50;96903.72;;;14.68;60.99